sensor_id;sensor_type;location;lat;lon;timestamp;P1;durP1;ratioP1;P2;durP2;ratioP2
55134;SDS011;41031;44.750;11.308;2022-12-18T00:01:29;8.20;;;6.00;;
55134;SDS011;41031;44.750;11.308;2022-12-18T00:04:00;7.27;;;6.57;;
55134;SDS011;41031;44.750;11.308;2022-12-18T00:06:29;8.50;;;6.43;;
55134;SDS011;41031;44.750;11.308;2022-12-18T00:08:57;7.50;;;5.73;;
55134;SDS011;41031;44.750;11.308;2022-12-18T00:11:26;8.20;;;6.57;;
55134;SDS011;41031;44.750;11.308;2022-12-18T00:13:56;9.73;;;6.97;;
55134;SDS011;41031;44.750;11.308;2022-12-18T00:16:24;9.00;;;6.87;;
55134;SDS011;41031;44.750;11.308;2022-12-18T00:18:54;9.47;;;7.60;;
55134;SDS011;41031;44.750;11.308;2022-12-18T00:21:22;9.87;;;6.80;;
55134;SDS011;41031;44.750;11.308;2022-12-18T00:23:49;10.33;;;6.87;;
55134;SDS011;41031;44.750;11.308;2022-12-18T00:26:18;6.97;;;6.17;;
55134;SDS011;41031;44.750;11.308;2022-12-18T00:28:50;11.23;;;6.20;;
55134;SDS011;41031;44.750;11.308;2022-12-18T00:31:19;8.73;;;7.00;;
55134;SDS011;41031;44.750;11.308;2022-12-18T00:33:47;9.10;;;6.70;;
55134;SDS011;41031;44.750;11.308;2022-12-18T00:36:21;7.53;;;6.50;;
55134;SDS011;41031;44.750;11.308;2022-12-18T00:38:51;7.87;;;6.10;;
55134;SDS011;41031;44.750;11.308;2022-12-18T00:41:19;7.40;;;6.10;;
55134;SDS011;41031;44.750;11.308;2022-12-18T00:44:05;6.50;;;5.80;;
55134;SDS011;41031;44.750;11.308;2022-12-18T00:46:33;10.17;;;6.60;;
55134;SDS011;41031;44.750;11.308;2022-12-18T00:49:00;8.13;;;6.40;;
55134;SDS011;41031;44.750;11.308;2022-12-18T00:51:28;9.20;;;6.43;;
55134;SDS011;41031;44.750;11.308;2022-12-18T00:53:55;9.30;;;7.67;;
55134;SDS011;41031;44.750;11.308;2022-12-18T00:56:23;8.47;;;5.97;;
55134;SDS011;41031;44.750;11.308;2022-12-18T00:58:51;7.90;;;6.70;;
55134;SDS011;41031;44.750;11.308;2022-12-18T01:01:18;9.27;;;5.57;;
55134;SDS011;41031;44.750;11.308;2022-12-18T01:03:46;6.83;;;5.93;;
55134;SDS011;41031;44.750;11.308;2022-12-18T01:06:15;6.90;;;5.33;;
55134;SDS011;41031;44.750;11.308;2022-12-18T01:08:43;6.53;;;5.50;;
55134;SDS011;41031;44.750;11.308;2022-12-18T01:11:15;8.70;;;6.03;;
55134;SDS011;41031;44.750;11.308;2022-12-18T01:13:44;8.63;;;5.43;;
55134;SDS011;41031;44.750;11.308;2022-12-18T01:16:12;7.07;;;5.93;;
55134;SDS011;41031;44.750;11.308;2022-12-18T01:18:41;6.63;;;5.60;;
55134;SDS011;41031;44.750;11.308;2022-12-18T01:21:09;6.27;;;5.67;;
55134;SDS011;41031;44.750;11.308;2022-12-18T01:23:37;9.63;;;5.83;;
55134;SDS011;41031;44.750;11.308;2022-12-18T01:26:09;7.47;;;6.00;;
55134;SDS011;41031;44.750;11.308;2022-12-18T01:28:38;7.13;;;5.70;;
55134;SDS011;41031;44.750;11.308;2022-12-18T01:31:13;5.93;;;5.33;;
55134;SDS011;41031;44.750;11.308;2022-12-18T01:33:50;8.20;;;6.07;;
55134;SDS011;41031;44.750;11.308;2022-12-18T01:36:19;7.80;;;5.50;;
55134;SDS011;41031;44.750;11.308;2022-12-18T01:38:49;9.83;;;6.93;;
55134;SDS011;41031;44.750;11.308;2022-12-18T01:41:18;7.93;;;5.53;;
55134;SDS011;41031;44.750;11.308;2022-12-18T01:43:51;8.33;;;6.03;;
55134;SDS011;41031;44.750;11.308;2022-12-18T01:46:21;7.17;;;5.87;;
55134;SDS011;41031;44.750;11.308;2022-12-18T01:48:59;7.77;;;6.00;;
55134;SDS011;41031;44.750;11.308;2022-12-18T01:51:28;8.27;;;6.10;;
55134;SDS011;41031;44.750;11.308;2022-12-18T01:53:56;8.40;;;6.33;;
55134;SDS011;41031;44.750;11.308;2022-12-18T01:56:24;9.87;;;7.00;;
55134;SDS011;41031;44.750;11.308;2022-12-18T02:01:31;7.27;;;6.47;;
55134;SDS011;41031;44.750;11.308;2022-12-18T02:04:22;7.23;;;5.53;;
55134;SDS011;41031;44.750;11.308;2022-12-18T02:09:50;6.60;;;5.20;;
55134;SDS011;41031;44.750;11.308;2022-12-18T02:12:28;7.47;;;5.23;;
55134;SDS011;41031;44.750;11.308;2022-12-18T02:15:31;6.63;;;5.57;;
55134;SDS011;41031;44.750;11.308;2022-12-18T02:18:24;7.90;;;5.43;;
55134;SDS011;41031;44.750;11.308;2022-12-18T02:21:02;8.20;;;6.27;;
55134;SDS011;41031;44.750;11.308;2022-12-18T02:26:30;7.80;;;5.93;;
55134;SDS011;41031;44.750;11.308;2022-12-18T02:29:11;5.93;;;5.33;;
55134;SDS011;41031;44.750;11.308;2022-12-18T02:31:45;7.20;;;5.83;;
55134;SDS011;41031;44.750;11.308;2022-12-18T02:34:19;6.43;;;5.67;;
55134;SDS011;41031;44.750;11.308;2022-12-18T02:36:50;7.23;;;5.57;;
55134;SDS011;41031;44.750;11.308;2022-12-18T02:39:21;7.00;;;5.77;;
55134;SDS011;41031;44.750;11.308;2022-12-18T02:41:57;6.40;;;5.33;;
55134;SDS011;41031;44.750;11.308;2022-12-18T02:44:26;6.23;;;5.63;;
55134;SDS011;41031;44.750;11.308;2022-12-18T02:46:53;8.73;;;6.30;;
55134;SDS011;41031;44.750;11.308;2022-12-18T02:52:13;5.73;;;5.07;;
55134;SDS011;41031;44.750;11.308;2022-12-18T03:01:21;7.33;;;5.97;;
55134;SDS011;41031;44.750;11.308;2022-12-18T03:03:55;7.73;;;5.43;;
55134;SDS011;41031;44.750;11.308;2022-12-18T03:06:54;6.83;;;4.93;;
55134;SDS011;41031;44.750;11.308;2022-12-18T03:09:26;7.23;;;5.60;;
55134;SDS011;41031;44.750;11.308;2022-12-18T03:12:06;7.40;;;6.17;;
55134;SDS011;41031;44.750;11.308;2022-12-18T03:17:22;6.77;;;6.10;;
55134;SDS011;41031;44.750;11.308;2022-12-18T03:19:51;9.20;;;6.50;;
55134;SDS011;41031;44.750;11.308;2022-12-18T03:22:22;8.23;;;6.90;;
55134;SDS011;41031;44.750;11.308;2022-12-18T03:24:52;7.53;;;6.07;;
55134;SDS011;41031;44.750;11.308;2022-12-18T03:27:23;7.37;;;6.47;;
55134;SDS011;41031;44.750;11.308;2022-12-18T03:29:57;8.10;;;6.17;;
55134;SDS011;41031;44.750;11.308;2022-12-18T03:32:42;7.40;;;6.20;;
55134;SDS011;41031;44.750;11.308;2022-12-18T03:35:16;7.60;;;6.03;;
55134;SDS011;41031;44.750;11.308;2022-12-18T03:37:46;9.83;;;7.23;;
55134;SDS011;41031;44.750;11.308;2022-12-18T03:40:13;7.80;;;6.67;;
55134;SDS011;41031;44.750;11.308;2022-12-18T03:42:48;8.73;;;6.93;;
55134;SDS011;41031;44.750;11.308;2022-12-18T03:45:27;7.70;;;5.90;;
55134;SDS011;41031;44.750;11.308;2022-12-18T03:48:09;11.97;;;7.13;;
55134;SDS011;41031;44.750;11.308;2022-12-18T03:53:44;8.37;;;6.50;;
55134;SDS011;41031;44.750;11.308;2022-12-18T03:56:18;9.47;;;6.00;;
55134;SDS011;41031;44.750;11.308;2022-12-18T03:58:49;10.47;;;6.93;;
55134;SDS011;41031;44.750;11.308;2022-12-18T04:01:22;8.17;;;6.73;;
55134;SDS011;41031;44.750;11.308;2022-12-18T04:03:55;8.47;;;6.80;;
55134;SDS011;41031;44.750;11.308;2022-12-18T04:06:24;8.00;;;6.43;;
55134;SDS011;41031;44.750;11.308;2022-12-18T04:08:52;7.97;;;6.30;;
55134;SDS011;41031;44.750;11.308;2022-12-18T04:11:23;8.17;;;6.43;;
55134;SDS011;41031;44.750;11.308;2022-12-18T04:13:50;8.03;;;6.90;;
55134;SDS011;41031;44.750;11.308;2022-12-18T04:16:22;7.93;;;6.50;;
55134;SDS011;41031;44.750;11.308;2022-12-18T04:18:53;8.37;;;7.17;;
55134;SDS011;41031;44.750;11.308;2022-12-18T04:21:22;8.53;;;7.00;;
55134;SDS011;41031;44.750;11.308;2022-12-18T04:23:51;9.53;;;6.80;;
55134;SDS011;41031;44.750;11.308;2022-12-18T04:26:20;9.57;;;6.27;;
55134;SDS011;41031;44.750;11.308;2022-12-18T04:29:10;8.70;;;6.60;;
55134;SDS011;41031;44.750;11.308;2022-12-18T04:31:38;9.10;;;6.83;;
55134;SDS011;41031;44.750;11.308;2022-12-18T04:34:06;7.03;;;5.83;;
55134;SDS011;41031;44.750;11.308;2022-12-18T04:36:39;9.63;;;7.47;;
55134;SDS011;41031;44.750;11.308;2022-12-18T04:39:06;8.67;;;7.33;;
55134;SDS011;41031;44.750;11.308;2022-12-18T04:41:33;9.50;;;7.50;;
55134;SDS011;41031;44.750;11.308;2022-12-18T04:44:01;8.97;;;7.00;;
55134;SDS011;41031;44.750;11.308;2022-12-18T04:46:28;9.80;;;7.60;;
55134;SDS011;41031;44.750;11.308;2022-12-18T04:48:56;9.67;;;7.30;;
55134;SDS011;41031;44.750;11.308;2022-12-18T04:51:23;10.10;;;7.57;;
55134;SDS011;41031;44.750;11.308;2022-12-18T04:53:52;9.47;;;7.40;;
55134;SDS011;41031;44.750;11.308;2022-12-18T04:56:19;8.27;;;7.43;;
55134;SDS011;41031;44.750;11.308;2022-12-18T04:58:47;11.60;;;7.80;;
55134;SDS011;41031;44.750;11.308;2022-12-18T05:01:15;7.20;;;6.50;;
55134;SDS011;41031;44.750;11.308;2022-12-18T05:03:43;9.83;;;7.13;;
55134;SDS011;41031;44.750;11.308;2022-12-18T05:06:11;10.43;;;7.47;;
55134;SDS011;41031;44.750;11.308;2022-12-18T05:08:37;8.13;;;7.23;;
55134;SDS011;41031;44.750;11.308;2022-12-18T05:11:06;11.83;;;7.73;;
55134;SDS011;41031;44.750;11.308;2022-12-18T05:13:37;10.00;;;7.57;;
55134;SDS011;41031;44.750;11.308;2022-12-18T05:16:05;8.80;;;7.40;;
55134;SDS011;41031;44.750;11.308;2022-12-18T05:18:33;11.70;;;7.23;;
55134;SDS011;41031;44.750;11.308;2022-12-18T05:21:00;10.30;;;7.53;;
55134;SDS011;41031;44.750;11.308;2022-12-18T05:23:28;9.23;;;7.30;;
55134;SDS011;41031;44.750;11.308;2022-12-18T05:25:56;9.03;;;7.53;;
55134;SDS011;41031;44.750;11.308;2022-12-18T05:28:25;8.40;;;7.10;;
55134;SDS011;41031;44.750;11.308;2022-12-18T05:30:56;7.87;;;6.87;;
55134;SDS011;41031;44.750;11.308;2022-12-18T05:33:25;8.23;;;7.03;;
55134;SDS011;41031;44.750;11.308;2022-12-18T05:35:54;9.27;;;7.10;;
55134;SDS011;41031;44.750;11.308;2022-12-18T05:38:24;8.70;;;7.47;;
55134;SDS011;41031;44.750;11.308;2022-12-18T05:40:52;8.30;;;7.40;;
55134;SDS011;41031;44.750;11.308;2022-12-18T05:43:20;6.90;;;6.03;;
55134;SDS011;41031;44.750;11.308;2022-12-18T05:45:50;8.97;;;7.33;;
55134;SDS011;41031;44.750;11.308;2022-12-18T05:48:19;8.83;;;7.73;;
55134;SDS011;41031;44.750;11.308;2022-12-18T05:50:47;9.47;;;7.23;;
55134;SDS011;41031;44.750;11.308;2022-12-18T05:53:16;9.10;;;7.07;;
55134;SDS011;41031;44.750;11.308;2022-12-18T05:55:45;10.33;;;7.70;;
55134;SDS011;41031;44.750;11.308;2022-12-18T05:58:12;9.00;;;7.57;;
55134;SDS011;41031;44.750;11.308;2022-12-18T06:00:44;9.97;;;7.23;;
55134;SDS011;41031;44.750;11.308;2022-12-18T06:03:12;11.90;;;7.47;;
55134;SDS011;41031;44.750;11.308;2022-12-18T06:05:43;11.23;;;8.83;;
55134;SDS011;41031;44.750;11.308;2022-12-18T06:08:12;8.80;;;7.37;;
55134;SDS011;41031;44.750;11.308;2022-12-18T06:10:40;8.33;;;7.50;;
55134;SDS011;41031;44.750;11.308;2022-12-18T06:13:07;9.47;;;7.17;;
55134;SDS011;41031;44.750;11.308;2022-12-18T06:15:38;7.83;;;7.03;;
55134;SDS011;41031;44.750;11.308;2022-12-18T06:18:05;9.60;;;7.10;;
55134;SDS011;41031;44.750;11.308;2022-12-18T06:20:32;10.90;;;8.73;;
55134;SDS011;41031;44.750;11.308;2022-12-18T06:22:59;9.00;;;7.57;;
55134;SDS011;41031;44.750;11.308;2022-12-18T06:25:26;8.23;;;7.37;;
55134;SDS011;41031;44.750;11.308;2022-12-18T06:27:54;9.43;;;8.23;;
55134;SDS011;41031;44.750;11.308;2022-12-18T06:30:21;11.10;;;8.13;;
55134;SDS011;41031;44.750;11.308;2022-12-18T06:32:48;8.63;;;7.67;;
55134;SDS011;41031;44.750;11.308;2022-12-18T06:35:22;9.63;;;7.13;;
55134;SDS011;41031;44.750;11.308;2022-12-18T06:37:49;10.47;;;6.93;;
55134;SDS011;41031;44.750;11.308;2022-12-18T06:40:17;9.73;;;8.67;;
55134;SDS011;41031;44.750;11.308;2022-12-18T06:42:44;12.03;;;7.87;;
55134;SDS011;41031;44.750;11.308;2022-12-18T06:45:11;9.23;;;8.00;;
55134;SDS011;41031;44.750;11.308;2022-12-18T06:47:42;10.63;;;8.37;;
55134;SDS011;41031;44.750;11.308;2022-12-18T06:50:09;9.17;;;7.60;;
55134;SDS011;41031;44.750;11.308;2022-12-18T06:52:36;9.27;;;7.77;;
55134;SDS011;41031;44.750;11.308;2022-12-18T06:55:05;10.60;;;8.30;;
55134;SDS011;41031;44.750;11.308;2022-12-18T06:57:34;12.17;;;8.70;;
55134;SDS011;41031;44.750;11.308;2022-12-18T07:00:02;10.83;;;8.23;;
55134;SDS011;41031;44.750;11.308;2022-12-18T07:02:30;11.00;;;8.10;;
55134;SDS011;41031;44.750;11.308;2022-12-18T07:04:57;10.00;;;7.83;;
55134;SDS011;41031;44.750;11.308;2022-12-18T07:07:25;8.83;;;7.60;;
55134;SDS011;41031;44.750;11.308;2022-12-18T07:09:52;8.83;;;7.03;;
55134;SDS011;41031;44.750;11.308;2022-12-18T07:12:19;10.53;;;7.47;;
55134;SDS011;41031;44.750;11.308;2022-12-18T07:14:46;10.03;;;8.03;;
55134;SDS011;41031;44.750;11.308;2022-12-18T07:17:13;11.87;;;7.77;;
55134;SDS011;41031;44.750;11.308;2022-12-18T07:19:40;11.50;;;8.63;;
55134;SDS011;41031;44.750;11.308;2022-12-18T07:22:07;9.70;;;7.80;;
55134;SDS011;41031;44.750;11.308;2022-12-18T07:24:34;8.70;;;7.67;;
55134;SDS011;41031;44.750;11.308;2022-12-18T07:27:01;8.77;;;6.80;;
55134;SDS011;41031;44.750;11.308;2022-12-18T07:29:29;8.67;;;7.77;;
55134;SDS011;41031;44.750;11.308;2022-12-18T07:31:56;9.20;;;7.67;;
55134;SDS011;41031;44.750;11.308;2022-12-18T07:34:23;9.80;;;7.73;;
55134;SDS011;41031;44.750;11.308;2022-12-18T07:36:50;9.07;;;7.57;;
55134;SDS011;41031;44.750;11.308;2022-12-18T07:39:17;10.03;;;7.83;;
55134;SDS011;41031;44.750;11.308;2022-12-18T07:41:44;10.40;;;7.23;;
55134;SDS011;41031;44.750;11.308;2022-12-18T07:44:31;11.57;;;8.07;;
55134;SDS011;41031;44.750;11.308;2022-12-18T07:46:58;8.73;;;7.83;;
55134;SDS011;41031;44.750;11.308;2022-12-18T07:49:25;9.53;;;7.53;;
55134;SDS011;41031;44.750;11.308;2022-12-18T07:51:53;12.50;;;8.93;;
55134;SDS011;41031;44.750;11.308;2022-12-18T07:54:22;10.83;;;8.13;;
55134;SDS011;41031;44.750;11.308;2022-12-18T07:56:51;11.10;;;8.67;;
55134;SDS011;41031;44.750;11.308;2022-12-18T07:59:18;14.90;;;10.40;;
55134;SDS011;41031;44.750;11.308;2022-12-18T08:01:46;11.63;;;7.93;;
55134;SDS011;41031;44.750;11.308;2022-12-18T08:04:13;16.70;;;9.10;;
55134;SDS011;41031;44.750;11.308;2022-12-18T08:06:40;15.90;;;10.73;;
55134;SDS011;41031;44.750;11.308;2022-12-18T08:09:13;14.83;;;10.67;;
55134;SDS011;41031;44.750;11.308;2022-12-18T08:11:40;15.33;;;10.33;;
55134;SDS011;41031;44.750;11.308;2022-12-18T08:14:07;19.33;;;13.87;;
55134;SDS011;41031;44.750;11.308;2022-12-18T08:16:34;19.27;;;13.73;;
55134;SDS011;41031;44.750;11.308;2022-12-18T08:19:01;23.07;;;13.47;;
55134;SDS011;41031;44.750;11.308;2022-12-18T08:21:30;19.57;;;12.77;;
55134;SDS011;41031;44.750;11.308;2022-12-18T08:23:58;13.70;;;10.20;;
55134;SDS011;41031;44.750;11.308;2022-12-18T08:26:27;12.83;;;9.13;;
55134;SDS011;41031;44.750;11.308;2022-12-18T08:28:56;12.33;;;8.80;;
55134;SDS011;41031;44.750;11.308;2022-12-18T08:31:25;11.73;;;8.73;;
55134;SDS011;41031;44.750;11.308;2022-12-18T08:33:53;12.03;;;8.80;;
55134;SDS011;41031;44.750;11.308;2022-12-18T08:36:22;13.03;;;8.93;;
55134;SDS011;41031;44.750;11.308;2022-12-18T08:38:51;11.93;;;9.20;;
55134;SDS011;41031;44.750;11.308;2022-12-18T08:41:19;13.60;;;8.47;;
55134;SDS011;41031;44.750;11.308;2022-12-18T08:43:46;10.83;;;8.40;;
55134;SDS011;41031;44.750;11.308;2022-12-18T08:46:49;12.00;;;8.37;;
55134;SDS011;41031;44.750;11.308;2022-12-18T08:49:16;13.17;;;9.13;;
55134;SDS011;41031;44.750;11.308;2022-12-18T08:51:43;10.97;;;8.10;;
55134;SDS011;41031;44.750;11.308;2022-12-18T08:54:11;11.23;;;8.67;;
55134;SDS011;41031;44.750;11.308;2022-12-18T08:56:39;11.53;;;9.60;;
55134;SDS011;41031;44.750;11.308;2022-12-18T08:59:06;10.53;;;8.47;;
55134;SDS011;41031;44.750;11.308;2022-12-18T09:01:33;16.30;;;11.17;;
55134;SDS011;41031;44.750;11.308;2022-12-18T09:04:00;12.17;;;8.47;;
55134;SDS011;41031;44.750;11.308;2022-12-18T09:06:28;12.57;;;9.17;;
55134;SDS011;41031;44.750;11.308;2022-12-18T09:08:55;12.67;;;9.10;;
55134;SDS011;41031;44.750;11.308;2022-12-18T09:11:24;12.00;;;7.97;;
55134;SDS011;41031;44.750;11.308;2022-12-18T09:13:54;11.33;;;8.67;;
55134;SDS011;41031;44.750;11.308;2022-12-18T09:16:21;11.33;;;8.90;;
55134;SDS011;41031;44.750;11.308;2022-12-18T09:18:57;12.97;;;7.83;;
55134;SDS011;41031;44.750;11.308;2022-12-18T09:21:29;11.77;;;9.20;;
55134;SDS011;41031;44.750;11.308;2022-12-18T09:24:02;12.90;;;8.40;;
55134;SDS011;41031;44.750;11.308;2022-12-18T09:26:34;12.13;;;9.20;;
55134;SDS011;41031;44.750;11.308;2022-12-18T09:29:02;13.07;;;9.30;;
55134;SDS011;41031;44.750;11.308;2022-12-18T09:31:29;13.57;;;8.80;;
55134;SDS011;41031;44.750;11.308;2022-12-18T09:33:56;10.20;;;8.00;;
55134;SDS011;41031;44.750;11.308;2022-12-18T09:36:23;10.00;;;8.40;;
55134;SDS011;41031;44.750;11.308;2022-12-18T09:38:50;9.63;;;7.53;;
55134;SDS011;41031;44.750;11.308;2022-12-18T09:41:23;11.73;;;7.30;;
55134;SDS011;41031;44.750;11.308;2022-12-18T09:46:50;12.97;;;10.27;;
55134;SDS011;41031;44.750;11.308;2022-12-18T09:49:25;12.33;;;9.53;;
55134;SDS011;41031;44.750;11.308;2022-12-18T09:52:00;14.93;;;10.47;;
55134;SDS011;41031;44.750;11.308;2022-12-18T09:55:38;10.57;;;8.97;;
55134;SDS011;41031;44.750;11.308;2022-12-18T09:57:49;14.30;;;9.80;;
55134;SDS011;41031;44.750;11.308;2022-12-18T10:00:22;9.33;;;7.87;;
55134;SDS011;41031;44.750;11.308;2022-12-18T10:02:57;10.27;;;8.23;;
55134;SDS011;41031;44.750;11.308;2022-12-18T10:08:19;9.60;;;6.60;;
55134;SDS011;41031;44.750;11.308;2022-12-18T10:10:50;9.53;;;7.13;;
55134;SDS011;41031;44.750;11.308;2022-12-18T10:13:26;9.50;;;7.47;;
55134;SDS011;41031;44.750;11.308;2022-12-18T10:19:20;9.53;;;6.90;;
55134;SDS011;41031;44.750;11.308;2022-12-18T10:27:53;9.27;;;6.90;;
55134;SDS011;41031;44.750;11.308;2022-12-18T10:30:33;10.17;;;6.63;;
55134;SDS011;41031;44.750;11.308;2022-12-18T10:33:01;9.33;;;6.97;;
55134;SDS011;41031;44.750;11.308;2022-12-18T10:35:29;11.43;;;7.23;;
55134;SDS011;41031;44.750;11.308;2022-12-18T10:38:39;9.20;;;7.03;;
55134;SDS011;41031;44.750;11.308;2022-12-18T10:40:56;10.03;;;6.60;;
55134;SDS011;41031;44.750;11.308;2022-12-18T10:43:28;11.37;;;7.50;;
55134;SDS011;41031;44.750;11.308;2022-12-18T10:46:02;10.50;;;7.30;;
55134;SDS011;41031;44.750;11.308;2022-12-18T10:48:38;10.17;;;7.97;;
55134;SDS011;41031;44.750;11.308;2022-12-18T10:51:07;10.50;;;7.17;;
55134;SDS011;41031;44.750;11.308;2022-12-18T10:53:38;11.43;;;8.07;;
55134;SDS011;41031;44.750;11.308;2022-12-18T10:56:07;10.40;;;7.97;;
55134;SDS011;41031;44.750;11.308;2022-12-18T10:58:36;9.57;;;7.80;;
55134;SDS011;41031;44.750;11.308;2022-12-18T11:03:39;9.70;;;7.10;;
55134;SDS011;41031;44.750;11.308;2022-12-18T11:06:18;8.60;;;6.77;;
55134;SDS011;41031;44.750;11.308;2022-12-18T11:09:00;11.90;;;7.50;;
55134;SDS011;41031;44.750;11.308;2022-12-18T11:11:38;8.90;;;6.90;;
55134;SDS011;41031;44.750;11.308;2022-12-18T11:14:06;11.23;;;7.67;;
55134;SDS011;41031;44.750;11.308;2022-12-18T11:16:45;11.27;;;7.67;;
55134;SDS011;41031;44.750;11.308;2022-12-18T11:19:37;10.47;;;7.57;;
55134;SDS011;41031;44.750;11.308;2022-12-18T11:24:54;9.17;;;6.60;;
55134;SDS011;41031;44.750;11.308;2022-12-18T11:27:48;12.10;;;7.60;;
55134;SDS011;41031;44.750;11.308;2022-12-18T11:30:25;11.03;;;7.90;;
55134;SDS011;41031;44.750;11.308;2022-12-18T11:35:44;9.40;;;7.20;;
55134;SDS011;41031;44.750;11.308;2022-12-18T11:38:23;8.57;;;7.30;;
55134;SDS011;41031;44.750;11.308;2022-12-18T11:41:00;10.13;;;7.70;;
55134;SDS011;41031;44.750;11.308;2022-12-18T11:43:48;12.13;;;7.97;;
55134;SDS011;41031;44.750;11.308;2022-12-18T11:46:29;11.47;;;7.83;;
55134;SDS011;41031;44.750;11.308;2022-12-18T11:49:06;12.47;;;7.63;;
55134;SDS011;41031;44.750;11.308;2022-12-18T11:51:43;13.17;;;8.80;;
55134;SDS011;41031;44.750;11.308;2022-12-18T11:54:18;11.60;;;8.17;;
55134;SDS011;41031;44.750;11.308;2022-12-18T11:59:37;9.30;;;7.33;;
55134;SDS011;41031;44.750;11.308;2022-12-18T12:13:09;11.47;;;7.77;;
55134;SDS011;41031;44.750;11.308;2022-12-18T12:15:47;10.83;;;8.07;;
55134;SDS011;41031;44.750;11.308;2022-12-18T12:26:49;9.13;;;7.43;;
55134;SDS011;41031;44.750;11.308;2022-12-18T12:32:21;132.70;;;88.17;;
55134;SDS011;41031;44.750;11.308;2022-12-18T12:35:49;70.97;;;44.17;;
55134;SDS011;41031;44.750;11.308;2022-12-18T12:40:49;81.60;;;50.70;;
55134;SDS011;41031;44.750;11.308;2022-12-18T12:46:06;21.80;;;16.00;;
55134;SDS011;41031;44.750;11.308;2022-12-18T12:53:51;115.90;;;57.33;;
55134;SDS011;41031;44.750;11.308;2022-12-18T12:56:20;429.90;;;149.03;;
55134;SDS011;41031;44.750;11.308;2022-12-18T13:01:49;272.23;;;79.90;;
55134;SDS011;41031;44.750;11.308;2022-12-18T13:15:28;115.87;;;32.10;;
55134;SDS011;41031;44.750;11.308;2022-12-18T13:23:26;67.37;;;17.23;;
55134;SDS011;41031;44.750;11.308;2022-12-18T13:31:14;12.97;;;8.90;;
55134;SDS011;41031;44.750;11.308;2022-12-18T13:34:12;92.93;;;32.60;;
55134;SDS011;41031;44.750;11.308;2022-12-18T13:36:54;23.33;;;12.90;;
55134;SDS011;41031;44.750;11.308;2022-12-18T13:39:42;12.67;;;9.37;;
55134;SDS011;41031;44.750;11.308;2022-12-18T13:44:57;33.93;;;16.53;;
55134;SDS011;41031;44.750;11.308;2022-12-18T13:49:54;13.03;;;10.07;;
55134;SDS011;41031;44.750;11.308;2022-12-18T13:52:41;13.17;;;8.63;;
55134;SDS011;41031;44.750;11.308;2022-12-18T13:55:15;22.40;;;11.87;;
55134;SDS011;41031;44.750;11.308;2022-12-18T13:57:45;12.10;;;8.97;;
55134;SDS011;41031;44.750;11.308;2022-12-18T14:02:46;12.40;;;9.43;;
55134;SDS011;41031;44.750;11.308;2022-12-18T14:05:29;19.30;;;12.80;;
55134;SDS011;41031;44.750;11.308;2022-12-18T14:08:11;13.07;;;8.87;;
55134;SDS011;41031;44.750;11.308;2022-12-18T14:10:47;13.83;;;9.70;;
55134;SDS011;41031;44.750;11.308;2022-12-18T14:13:30;12.93;;;9.63;;
55134;SDS011;41031;44.750;11.308;2022-12-18T14:16:00;12.27;;;9.17;;
55134;SDS011;41031;44.750;11.308;2022-12-18T14:21:25;13.37;;;9.30;;
55134;SDS011;41031;44.750;11.308;2022-12-18T14:24:04;12.13;;;9.47;;
55134;SDS011;41031;44.750;11.308;2022-12-18T14:26:37;11.60;;;9.63;;
55134;SDS011;41031;44.750;11.308;2022-12-18T14:29:24;11.37;;;9.07;;
55134;SDS011;41031;44.750;11.308;2022-12-18T14:32:11;11.77;;;9.63;;
55134;SDS011;41031;44.750;11.308;2022-12-18T14:34:44;10.80;;;8.97;;
55134;SDS011;41031;44.750;11.308;2022-12-18T14:37:14;11.33;;;8.47;;
55134;SDS011;41031;44.750;11.308;2022-12-18T14:39:52;10.60;;;8.37;;
55134;SDS011;41031;44.750;11.308;2022-12-18T14:42:21;10.67;;;8.30;;
55134;SDS011;41031;44.750;11.308;2022-12-18T14:44:48;131.83;;;56.23;;
55134;SDS011;41031;44.750;11.308;2022-12-18T14:47:35;40.37;;;21.73;;
55134;SDS011;41031;44.750;11.308;2022-12-18T14:50:02;32.47;;;16.53;;
55134;SDS011;41031;44.750;11.308;2022-12-18T14:52:29;16.97;;;10.33;;
55134;SDS011;41031;44.750;11.308;2022-12-18T14:54:58;12.60;;;9.17;;
55134;SDS011;41031;44.750;11.308;2022-12-18T14:57:25;11.40;;;8.93;;
55134;SDS011;41031;44.750;11.308;2022-12-18T15:00:14;10.93;;;8.23;;
55134;SDS011;41031;44.750;11.308;2022-12-18T15:02:54;12.90;;;9.43;;
55134;SDS011;41031;44.750;11.308;2022-12-18T15:08:00;10.80;;;8.10;;
55134;SDS011;41031;44.750;11.308;2022-12-18T15:10:29;12.10;;;9.20;;
55134;SDS011;41031;44.750;11.308;2022-12-18T15:18:03;12.30;;;8.77;;
55134;SDS011;41031;44.750;11.308;2022-12-18T15:20:54;12.93;;;9.93;;
55134;SDS011;41031;44.750;11.308;2022-12-18T15:24:13;11.77;;;9.20;;
55134;SDS011;41031;44.750;11.308;2022-12-18T15:26:18;14.97;;;10.50;;
55134;SDS011;41031;44.750;11.308;2022-12-18T15:31:29;12.33;;;9.17;;
55134;SDS011;41031;44.750;11.308;2022-12-18T15:37:00;14.60;;;9.87;;
55134;SDS011;41031;44.750;11.308;2022-12-18T15:39:27;12.57;;;9.07;;
55134;SDS011;41031;44.750;11.308;2022-12-18T15:41:54;14.20;;;10.23;;
55134;SDS011;41031;44.750;11.308;2022-12-18T15:44:44;14.83;;;9.57;;
55134;SDS011;41031;44.750;11.308;2022-12-18T15:47:11;13.37;;;10.43;;
55134;SDS011;41031;44.750;11.308;2022-12-18T15:49:39;13.43;;;9.63;;
55134;SDS011;41031;44.750;11.308;2022-12-18T15:52:08;13.03;;;9.50;;
55134;SDS011;41031;44.750;11.308;2022-12-18T15:54:38;13.50;;;10.00;;
55134;SDS011;41031;44.750;11.308;2022-12-18T15:57:23;16.00;;;10.33;;
55134;SDS011;41031;44.750;11.308;2022-12-18T15:59:51;13.67;;;9.47;;
55134;SDS011;41031;44.750;11.308;2022-12-18T16:02:22;20.67;;;10.37;;
55134;SDS011;41031;44.750;11.308;2022-12-18T16:04:51;18.73;;;11.47;;
55134;SDS011;41031;44.750;11.308;2022-12-18T16:07:19;20.77;;;11.70;;
55134;SDS011;41031;44.750;11.308;2022-12-18T16:09:50;20.37;;;12.33;;
55134;SDS011;41031;44.750;11.308;2022-12-18T16:12:19;19.00;;;11.73;;
55134;SDS011;41031;44.750;11.308;2022-12-18T16:14:48;26.57;;;12.43;;
55134;SDS011;41031;44.750;11.308;2022-12-18T16:17:15;16.90;;;12.97;;
55134;SDS011;41031;44.750;11.308;2022-12-18T16:19:42;19.27;;;11.77;;
55134;SDS011;41031;44.750;11.308;2022-12-18T16:22:26;20.37;;;13.57;;
55134;SDS011;41031;44.750;11.308;2022-12-18T16:24:55;15.80;;;11.30;;
55134;SDS011;41031;44.750;11.308;2022-12-18T16:27:23;19.43;;;11.93;;
55134;SDS011;41031;44.750;11.308;2022-12-18T16:29:50;16.13;;;11.67;;
55134;SDS011;41031;44.750;11.308;2022-12-18T16:32:19;16.90;;;11.43;;
55134;SDS011;41031;44.750;11.308;2022-12-18T16:34:48;17.00;;;12.30;;
55134;SDS011;41031;44.750;11.308;2022-12-18T16:37:15;18.43;;;13.03;;
55134;SDS011;41031;44.750;11.308;2022-12-18T16:39:43;21.80;;;13.23;;
55134;SDS011;41031;44.750;11.308;2022-12-18T16:42:12;22.47;;;14.63;;
55134;SDS011;41031;44.750;11.308;2022-12-18T16:44:42;18.87;;;13.27;;
55134;SDS011;41031;44.750;11.308;2022-12-18T16:47:10;18.67;;;12.83;;
55134;SDS011;41031;44.750;11.308;2022-12-18T16:49:40;20.17;;;14.37;;
55134;SDS011;41031;44.750;11.308;2022-12-18T16:52:08;21.67;;;14.83;;
55134;SDS011;41031;44.750;11.308;2022-12-18T16:54:35;18.70;;;12.17;;
55134;SDS011;41031;44.750;11.308;2022-12-18T16:57:02;19.87;;;13.50;;
55134;SDS011;41031;44.750;11.308;2022-12-18T16:59:30;17.70;;;13.47;;
55134;SDS011;41031;44.750;11.308;2022-12-18T17:01:58;20.13;;;13.73;;
55134;SDS011;41031;44.750;11.308;2022-12-18T17:04:25;16.90;;;12.50;;